Time;durP1;ratioP1;P1;durP2;ratioP2;P2;SDS_P1;SDS_P2;PMS_P1;PMS_P2;Temp;Humidity;BMP_temperature;BMP_pressure;BME280_temperature;BME280_humidity;BME280_pressure;Samples;Min_cycle;Max_cycle;Signal;HPM_P1;HPM_P2
2022/09/27 10:34:43;;;;;;;2.17;0.63;;;12.30;99.90;;;;;;5127874;27;20693;-82
2022/09/27 10:37:21;;;;;;;1.35;0.47;;;12.20;99.90;;;;;;5126975;27;20401;-82
2022/09/27 10:39:51;;;;;;;2.65;0.80;;;12.30;99.90;;;;;;5128958;27;20039;-85
2022/09/27 10:42:33;;;;;;;1.70;0.50;;;12.30;99.90;;;;;;5136757;27;20071;-86
2022/09/27 10:45:31;;;;;;;1.35;0.40;;;12.50;99.90;;;;;;5117248;27;20127;-85
2022/09/27 10:48:02;;;;;;;2.65;0.60;;;12.60;99.90;;;;;;5112296;28;20047;-86
2022/09/27 10:50:31;;;;;;;2.53;0.50;;;12.60;99.90;;;;;;5099652;28;20065;-85
2022/09/27 10:53:10;;;;;;;2.30;0.60;;;12.70;99.90;;;;;;5130044;28;20488;-85
2022/09/27 10:55:36;;;;;;;1.67;0.45;;;12.80;99.90;;;;;;5116563;28;20047;-82
2022/09/27 10:58:03;;;;;;;2.22;0.70;;;12.80;99.90;;;;;;5127056;28;20067;-82
2022/09/27 11:00:34;;;;;;;3.53;1.08;;;12.80;99.90;;;;;;5108088;28;20050;-76
2022/09/27 11:03:06;;;;;;;3.53;0.68;;;12.80;99.90;;;;;;5108362;28;20092;-85
2022/09/27 11:05:48;;;;;;;3.08;0.60;;;12.90;99.90;;;;;;5111659;27;20044;-82
2022/09/27 11:08:37;;;;;;;2.55;0.55;;;13.00;99.90;;;;;;5130839;28;20584;-86
2022/09/27 11:11:15;;;;;;;3.38;0.85;;;13.00;99.90;;;;;;5133345;28;20040;-85
2022/09/27 11:13:55;;;;;;;1.48;0.40;;;13.00;99.90;;;;;;5120861;28;20553;-82
2022/09/27 11:17:04;;;;;;;5.22;0.80;;;12.90;99.90;;;;;;5119089;28;20470;-86
2022/09/27 11:20:04;;;;;;;1.55;0.40;;;12.70;99.90;;;;;;5104355;27;20126;-86
2022/09/27 11:22:41;;;;;;;7.50;0.90;;;12.30;99.90;;;;;;5103419;28;20055;-85
2022/09/27 11:25:29;;;;;;;1.92;0.70;;;12.00;99.90;;;;;;5127771;28;20047;-85
2022/09/27 11:28:07;;;;;;;1.27;0.30;;;12.00;99.90;;;;;;5111894;28;20046;-86
2022/09/27 11:30:57;;;;;;;1.98;0.63;;;12.00;99.90;;;;;;5097780;28;20039;-86
2022/09/27 11:33:54;;;;;;;0.95;0.40;;;12.10;99.90;;;;;;5124168;27;20553;-82
2022/09/27 11:36:33;;;;;;;0.75;0.40;;;12.00;99.90;;;;;;5124649;27;20365;-81
2022/09/27 11:39:26;;;;;;;1.58;0.40;;;12.00;99.90;;;;;;5127649;28;20035;-83
2022/09/27 11:42:17;;;;;;;0.90;0.32;;;12.00;99.90;;;;;;5106071;28;20573;-82
2022/09/27 11:45:02;;;;;;;1.17;0.28;;;12.10;99.90;;;;;;5104943;28;20050;-82
2022/09/27 11:47:46;;;;;;;1.95;0.50;;;12.10;99.90;;;;;;5104229;28;20039;-82
2022/09/27 11:50:31;;;;;;;2.13;0.35;;;12.20;99.90;;;;;;5086953;28;20035;-82
2022/09/27 11:53:19;;;;;;;0.25;0.22;;;12.40;99.90;;;;;;5106196;28;20509;-85
2022/09/27 11:56:12;;;;;;;2.75;0.47;;;12.50;99.90;;;;;;5101016;28;20063;-86
2022/09/27 11:58:47;;;;;;;2.28;0.40;;;12.50;99.90;;;;;;5089766;28;20498;-83
2022/09/27 12:01:31;;;;;;;1.60;0.50;;;12.50;99.90;;;;;;5105942;28;20479;-82
2022/09/27 12:04:21;;;;;;;0.93;0.28;;;12.60;99.90;;;;;;5090496;28;20105;-85
2022/09/27 12:06:51;;;;;;;0.57;0.30;;;12.70;99.90;;;;;;5102640;28;20607;-84
2022/09/27 12:09:24;;;;;;;2.55;0.30;;;12.70;99.90;;;;;;5099900;28;20039;-84
2022/09/27 12:12:07;;;;;;;1.35;0.38;;;12.90;99.90;;;;;;5110032;28;20028;-83
2022/09/27 12:14:45;;;;;;;1.63;0.30;;;13.10;99.90;;;;;;5115206;28;20047;-82
2022/09/27 12:17:17;;;;;;;1.05;0.40;;;13.00;99.90;;;;;;5111103;28;20083;-82
2022/09/27 12:19:49;;;;;;;0.40;0.40;;;13.00;99.90;;;;;;5112647;28;20047;-83
2022/09/27 12:22:27;;;;;;;0.55;0.30;;;13.00;99.90;;;;;;5115766;28;20614;-83
2022/09/27 12:24:53;;;;;;;1.92;0.40;;;13.00;99.90;;;;;;5114624;28;20040;-82
2022/09/27 12:27:22;;;;;;;1.13;0.40;;;12.90;99.90;;;;;;5114495;28;20044;-82
2022/09/27 12:29:49;;;;;;;1.25;0.40;;;13.00;99.90;;;;;;5110225;28;20044;-83
2022/09/27 12:32:23;;;;;;;2.42;0.57;;;13.00;99.90;;;;;;5106458;28;20040;-82
2022/09/27 12:35:05;;;;;;;2.38;0.73;;;13.00;99.90;;;;;;5110617;28;20040;-82
2022/09/27 12:37:50;;;;;;;4.88;0.77;;;13.00;99.90;;;;;;5113118;28;20046;-83
2022/09/27 12:40:30;;;;;;;2.05;0.77;;;13.00;99.90;;;;;;5102385;28;20044;-83
2022/09/27 12:43:05;;;;;;;3.03;0.80;;;13.10;99.90;;;;;;5107435;28;20123;-82
2022/09/27 12:45:53;;;;;;;2.72;0.80;;;13.00;99.90;;;;;;5108125;28;20040;-85
2022/09/27 12:48:21;;;;;;;3.55;0.85;;;13.00;99.90;;;;;;5109389;28;20044;-85
2022/09/27 12:50:56;;;;;;;5.57;0.80;;;13.00;99.90;;;;;;5082491;28;20525;-84
2022/09/27 12:53:40;;;;;;;4.97;0.90;;;12.90;99.90;;;;;;5086587;28;20040;-84
2022/09/27 12:56:24;;;;;;;3.25;0.80;;;13.00;99.90;;;;;;5107869;28;20414;-85
2022/09/27 12:59:09;;;;;;;3.72;0.77;;;13.20;99.90;;;;;;5106903;28;20047;-85
2022/09/27 13:02:14;;;;;;;2.97;0.65;;;13.30;99.90;;;;;;5107783;28;20063;-85
2022/09/27 13:08:26;;;;;;;2.78;0.60;;;13.40;99.90;;;;;;5109980;28;20046;-83
2022/09/27 13:11:11;;;;;;;2.45;0.60;;;13.30;99.90;;;;;;5089697;28;20048;-83
2022/09/27 13:18:21;;;;;;;;;;;12.90;99.90;;;;;;5059233;28;20040;-82
2022/09/27 13:21:50;;;;;;;4.45;0.73;;;12.70;99.90;;;;;;4981262;28;19960;-82
2022/09/27 14:08:04;;;;;;;1.38;0.40;;;12.00;99.90;;;;;;5011279;28;20054;-82
2022/09/27 14:10:31;;;;;;;0.98;0.60;;;12.00;99.90;;;;;;5000884;28;20180;-81
2022/09/27 14:17:02;;;;;;;2.05;0.32;;;12.00;99.90;;;;;;5010461;28;20040;-81
2022/09/27 14:23:50;;;;;;;2.03;0.40;;;12.00;99.90;;;;;;5015772;28;20477;-86
2022/09/27 14:27:18;;;;;;;2.72;0.50;;;11.90;99.90;;;;;;5006567;28;20101;-86
2022/09/27 14:38:12;;;;;;;3.15;0.80;;;12.00;99.90;;;;;;4895788;29;20183;-83
2022/09/27 14:41:10;;;;;;;2.20;0.60;;;12.10;99.90;;;;;;4899959;29;20056;-84
2022/09/27 14:43:43;;;;;;;3.72;0.70;;;12.10;99.90;;;;;;4853735;29;20057;-84
2022/09/27 14:46:27;;;;;;;3.00;0.70;;;12.00;99.90;;;;;;4848856;29;20100;-84
2022/09/27 14:48:58;;;;;;;3.67;0.68;;;12.00;99.90;;;;;;4949394;28;20043;-84
2022/09/27 14:51:31;;;;;;;2.58;0.68;;;12.00;99.90;;;;;;4962029;28;20117;-83
2022/09/27 14:54:04;;;;;;;3.38;0.80;;;11.90;99.90;;;;;;4979942;28;20045;-83
2022/09/27 14:56:56;;;;;;;2.53;0.60;;;12.00;99.90;;;;;;5006068;28;20085;-81
2022/09/27 14:59:33;;;;;;;2.25;0.70;;;11.80;99.90;;;;;;4979527;28;20045;-84
2022/09/27 15:02:02;;;;;;;1.25;0.52;;;11.80;99.90;;;;;;4979420;28;20054;-84
2022/09/27 15:04:30;;;;;;;3.80;0.70;;;11.80;99.90;;;;;;4988149;28;20050;-84
2022/09/27 15:06:57;;;;;;;4.03;0.90;;;11.70;99.90;;;;;;5001296;28;20038;-84
2022/09/27 15:09:23;;;;;;;5.03;1.00;;;11.70;99.90;;;;;;4995987;28;20096;-84
2022/09/27 15:11:59;;;;;;;1.75;0.73;;;11.80;99.90;;;;;;4973288;28;20038;-84
2022/09/27 15:14:26;;;;;;;3.10;0.90;;;11.80;99.90;;;;;;5010438;28;20429;-86
2022/09/27 15:16:53;;;;;;;1.83;0.82;;;11.70;99.90;;;;;;5011711;28;20161;-85
2022/09/27 15:19:25;;;;;;;1.90;0.90;;;11.70;99.90;;;;;;5003617;28;20049;-85
2022/09/27 15:21:51;;;;;;;2.40;1.13;;;11.60;99.90;;;;;;4987545;28;20082;-84
2022/09/27 15:24:42;;;;;;;2.88;1.10;;;11.50;99.90;;;;;;4988547;28;20130;-85
2022/09/27 15:27:17;;;;;;;5.30;1.17;;;11.50;99.90;;;;;;4986841;28;20054;-85
2022/09/27 15:29:55;;;;;;;3.75;1.00;;;11.40;99.90;;;;;;5001213;28;20042;-85
2022/09/27 15:32:22;;;;;;;4.05;0.80;;;11.30;99.90;;;;;;4998828;28;20037;-84
2022/09/27 15:34:49;;;;;;;2.25;0.70;;;11.20;99.90;;;;;;4999898;28;20042;-84
2022/09/27 15:37:27;;;;;;;2.17;1.00;;;11.20;99.90;;;;;;4983213;28;20045;-85
2022/09/27 15:39:53;;;;;;;2.22;1.00;;;11.00;99.90;;;;;;4984366;28;20038;-85
2022/09/27 15:42:19;;;;;;;3.63;0.95;;;11.00;99.90;;;;;;4996671;28;20042;-83
2022/09/27 15:44:49;;;;;;;3.47;0.90;;;11.00;99.90;;;;;;4987248;28;20042;-83
2022/09/27 15:50:17;;;;;;;3.20;1.13;;;11.00;99.90;;;;;;5001234;28;20050;-84
2022/09/27 15:52:50;;;;;;;5.40;1.42;;;11.00;99.90;;;;;;4997749;28;20454;-83
2022/09/27 15:55:24;;;;;;;4.70;1.45;;;10.90;99.90;;;;;;4982958;28;20038;-84
2022/09/27 15:58:15;;;;;;;4.57;1.20;;;10.80;99.90;;;;;;4984400;28;20041;-84
2022/09/27 16:01:01;;;;;;;3.20;1.20;;;10.80;99.90;;;;;;4989016;28;20041;-84
2022/09/27 16:03:28;;;;;;;4.50;1.30;;;10.80;99.90;;;;;;4983590;28;20053;-83
2022/09/27 16:05:59;;;;;;;4.68;1.50;;;10.80;99.90;;;;;;4990980;28;20081;-83
2022/09/27 16:08:26;;;;;;;5.10;1.40;;;10.90;99.90;;;;;;4964398;28;20042;-83
2022/09/27 16:10:54;;;;;;;4.18;1.63;;;10.90;99.90;;;;;;4981437;28;20042;-83
2022/09/27 16:13:20;;;;;;;4.32;1.42;;;10.90;99.90;;;;;;5013570;28;20042;-83
2022/09/27 16:15:47;;;;;;;4.72;1.13;;;10.90;99.90;;;;;;4981010;28;20049;-82
2022/09/27 16:18:13;;;;;;;3.92;1.17;;;10.80;99.90;;;;;;4996305;28;20120;-82
2022/09/27 16:20:38;;;;;;;3.45;1.30;;;10.80;99.90;;;;;;4996130;28;20128;-84
2022/09/27 16:23:04;;;;;;;3.63;1.23;;;10.80;99.90;;;;;;4994351;28;20045;-84
2022/09/27 16:25:30;;;;;;;4.65;1.30;;;10.90;99.90;;;;;;4978109;28;20042;-83
2022/09/27 16:27:57;;;;;;;3.80;1.30;;;10.80;99.90;;;;;;4974915;28;20038;-82
2022/09/27 16:30:23;;;;;;;4.20;1.25;;;10.80;99.90;;;;;;4990292;28;20053;-82
2022/09/27 16:32:49;;;;;;;12.02;1.20;;;10.80;99.90;;;;;;4991568;28;20046;-81
2022/09/27 16:35:16;;;;;;;5.55;1.33;;;10.80;99.90;;;;;;5000887;28;20038;-82
2022/09/27 16:37:42;;;;;;;3.20;1.02;;;10.80;99.90;;;;;;5001661;28;20188;-82
2022/09/27 16:40:09;;;;;;;3.53;1.45;;;10.80;99.90;;;;;;4996991;28;20136;-81
2022/09/27 16:42:36;;;;;;;4.05;1.65;;;10.80;99.90;;;;;;4995670;28;20065;-83
2022/09/27 16:45:03;;;;;;;2.88;1.15;;;10.70;99.90;;;;;;4997075;28;20081;-82
2022/09/27 16:47:29;;;;;;;4.32;1.30;;;10.70;99.90;;;;;;4997245;28;20042;-83
2022/09/27 16:52:41;;;;;;;4.65;1.30;;;10.60;99.90;;;;;;4997182;28;20071;-82
2022/09/27 16:55:07;;;;;;;5.43;1.30;;;10.60;99.90;;;;;;5004698;28;20129;-82
2022/09/27 16:57:33;;;;;;;4.05;1.50;;;10.60;99.90;;;;;;4979022;28;20137;-82
2022/09/27 16:59:59;;;;;;;3.75;1.40;;;10.60;99.90;;;;;;4995342;28;20042;-82
2022/09/27 17:02:25;;;;;;;4.78;1.60;;;10.60;99.90;;;;;;4975381;28;20480;-79
2022/09/27 17:04:52;;;;;;;5.05;1.92;;;10.60;99.90;;;;;;4970984;28;20041;-79
2022/09/27 17:07:18;;;;;;;5.18;2.47;;;10.50;99.90;;;;;;4995079;28;20046;-79
2022/09/27 17:09:44;;;;;;;5.55;2.15;;;10.60;99.90;;;;;;4972202;28;20116;-79
2022/09/27 17:12:11;;;;;;;4.45;1.70;;;10.50;99.90;;;;;;4977496;28;21084;-85
2022/09/27 17:14:37;;;;;;;3.22;1.50;;;10.40;99.90;;;;;;4978092;28;20038;-83
2022/09/27 17:17:02;;;;;;;3.05;1.50;;;10.40;99.90;;;;;;4971944;28;20068;-83
2022/09/27 17:19:28;;;;;;;3.63;1.30;;;10.30;99.90;;;;;;4981154;28;20077;-80
2022/09/27 17:21:56;;;;;;;2.50;1.15;;;10.30;99.90;;;;;;5000655;28;20057;-79
2022/09/27 17:24:22;;;;;;;1.95;0.90;;;10.20;99.90;;;;;;4995116;28;20096;-81
2022/09/27 17:26:47;;;;;;;2.88;1.17;;;10.10;99.90;;;;;;4976434;28;20034;-82
2022/09/27 17:29:13;;;;;;;2.20;0.80;;;10.10;99.90;;;;;;4981986;28;20149;-83
2022/09/27 17:31:40;;;;;;;3.95;0.82;;;10.10;99.90;;;;;;4994740;28;20049;-79
2022/09/27 17:34:10;;;;;;;1.90;1.20;;;10.10;99.90;;;;;;5004484;28;20045;-79
2022/09/27 17:36:40;;;;;;;4.93;1.27;;;10.00;99.90;;;;;;4995683;28;20672;-83
2022/09/27 17:39:09;;;;;;;2.13;1.08;;;10.00;99.90;;;;;;4986116;28;20042;-83
2022/09/27 17:41:36;;;;;;;3.20;1.20;;;9.90;99.90;;;;;;4975081;28;20141;-80
2022/09/27 17:44:02;;;;;;;2.72;1.08;;;9.90;99.90;;;;;;4989027;28;20108;-80
2022/09/27 17:46:31;;;;;;;2.72;0.85;;;9.90;99.90;;;;;;4986056;28;20042;-82
2022/09/27 17:51:47;;;;;;;5.03;1.08;;;9.90;99.90;;;;;;4996848;28;20104;-84
2022/09/27 17:54:13;;;;;;;4.15;0.90;;;9.90;99.90;;;;;;4987943;28;20686;-83
2022/09/27 17:56:40;;;;;;;2.65;0.90;;;9.90;99.90;;;;;;4979386;28;20046;-83
2022/09/27 17:59:07;;;;;;;3.67;1.13;;;9.80;99.90;;;;;;4999832;28;20045;-82
2022/09/27 18:01:34;;;;;;;1.05;0.90;;;9.80;99.90;;;;;;4994988;28;20507;-82
2022/09/27 18:04:00;;;;;;;2.92;1.20;;;9.70;99.90;;;;;;4976734;28;20054;-80
2022/09/27 18:06:27;;;;;;;3.13;1.08;;;9.60;99.90;;;;;;4984468;28;20092;-79
2022/09/27 18:08:53;;;;;;;3.75;1.60;;;9.60;99.90;;;;;;4995221;28;20038;-81
2022/09/27 18:11:24;;;;;;;2.58;1.10;;;9.50;99.90;;;;;;4986353;28;20074;-83
2022/09/27 18:13:50;;;;;;;4.13;1.20;;;9.50;99.90;;;;;;4974569;28;20435;-80
2022/09/27 18:16:17;;;;;;;5.28;1.20;;;9.40;99.90;;;;;;4986982;28;20042;-80
2022/09/27 18:18:46;;;;;;;5.10;1.42;;;9.40;99.90;;;;;;4994866;28;20033;-81
2022/09/27 18:21:14;;;;;;;3.08;1.10;;;9.40;99.90;;;;;;4987186;28;20050;-80
2022/09/27 18:23:43;;;;;;;2.40;1.20;;;9.40;99.90;;;;;;4987127;28;20088;-79
2022/09/27 18:26:10;;;;;;;1.73;1.08;;;9.40;99.90;;;;;;4991896;28;20030;-79
2022/09/27 18:28:37;;;;;;;4.22;1.10;;;9.30;99.90;;;;;;4985126;28;20042;-78
2022/09/27 18:31:06;;;;;;;5.32;1.15;;;9.30;99.90;;;;;;4985254;28;20129;-78
2022/09/27 18:33:32;;;;;;;2.28;1.05;;;9.20;99.90;;;;;;4995858;28;20079;-78
2022/09/27 18:36:04;;;;;;;2.72;1.05;;;9.20;99.90;;;;;;4992314;28;20411;-77
2022/09/27 18:38:31;;;;;;;2.97;1.10;;;9.20;99.90;;;;;;4981405;28;20045;-77
2022/09/27 18:41:03;;;;;;;4.70;1.20;;;9.20;99.90;;;;;;4989329;28;20060;-77
2022/09/27 18:43:28;;;;;;;1.92;1.20;;;9.20;99.90;;;;;;4993212;28;20045;-79
2022/09/27 18:45:54;;;;;;;2.25;1.10;;;9.20;99.90;;;;;;4973971;28;20073;-77
2022/09/27 18:48:19;;;;;;;1.95;1.08;;;9.20;99.90;;;;;;4989796;28;20057;-78
2022/09/27 18:50:45;;;;;;;2.47;1.10;;;9.20;99.90;;;;;;4992247;28;20053;-79
2022/09/27 18:53:11;;;;;;;2.10;1.20;;;9.20;99.90;;;;;;4994180;28;20042;-80
2022/09/27 18:55:38;;;;;;;2.97;1.30;;;9.30;99.90;;;;;;4991201;28;20756;-81
2022/09/27 18:58:04;;;;;;;5.88;1.45;;;9.20;99.90;;;;;;4981685;28;20042;-80
2022/09/27 19:00:30;;;;;;;4.43;1.40;;;9.30;99.90;;;;;;4978651;28;20125;-79
2022/09/27 19:02:56;;;;;;;1.52;1.20;;;9.30;99.90;;;;;;4999213;28;20038;-79
2022/09/27 19:05:21;;;;;;;2.58;1.50;;;9.30;99.90;;;;;;5000874;28;20072;-79
2022/09/27 19:07:47;;;;;;;2.40;1.30;;;9.30;99.90;;;;;;4979623;28;20037;-79
2022/09/27 19:10:13;;;;;;;3.47;1.70;;;9.30;99.90;;;;;;4991657;28;20041;-77
2022/09/27 19:12:40;;;;;;;2.47;1.00;;;9.30;99.90;;;;;;4990064;28;20051;-78
2022/09/27 19:15:06;;;;;;;2.95;1.00;;;9.30;99.90;;;;;;4985182;28;20046;-77
2022/09/27 19:17:32;;;;;;;5.47;1.10;;;9.40;99.90;;;;;;4992452;28;20054;-78
2022/09/27 19:19:57;;;;;;;6.50;1.30;;;9.40;99.90;;;;;;4981330;28;20153;-79
2022/09/27 19:22:23;;;;;;;5.35;1.10;;;9.40;99.90;;;;;;4998181;28;20092;-80
2022/09/27 19:24:49;;;;;;;3.67;1.50;;;9.40;99.90;;;;;;4995798;28;20127;-80
2022/09/27 19:27:15;;;;;;;2.35;1.60;;;9.40;99.90;;;;;;4980668;28;20045;-80
2022/09/27 19:29:41;;;;;;;4.82;1.90;;;9.40;99.90;;;;;;4988506;28;20127;-80
2022/09/27 19:32:06;;;;;;;3.97;1.65;;;9.40;99.90;;;;;;4993042;28;20082;-78
2022/09/27 19:34:32;;;;;;;2.28;1.48;;;9.40;99.90;;;;;;4990715;28;20072;-78
2022/09/27 19:36:58;;;;;;;3.55;1.80;;;9.30;99.90;;;;;;4998636;28;20059;-77
2022/09/27 19:39:23;;;;;;;3.20;1.65;;;9.30;99.90;;;;;;4992025;28;20050;-77
2022/09/27 19:41:49;;;;;;;3.15;1.60;;;9.30;99.90;;;;;;4997473;28;20050;-77
2022/09/27 19:44:14;;;;;;;4.45;1.55;;;9.30;99.90;;;;;;4989679;28;20049;-77
2022/09/27 19:46:40;;;;;;;4.18;1.95;;;9.20;99.90;;;;;;4973838;28;20126;-78
2022/09/27 19:49:06;;;;;;;3.40;1.80;;;9.20;99.90;;;;;;4987510;28;20038;-77
2022/09/27 19:51:32;;;;;;;4.05;1.80;;;9.20;99.90;;;;;;4991273;28;20563;-77
2022/09/27 19:53:57;;;;;;;3.08;1.65;;;9.10;99.90;;;;;;4995900;28;21414;-77
2022/09/27 19:56:24;;;;;;;2.15;1.80;;;9.10;99.90;;;;;;4994556;28;20045;-78
2022/09/27 19:58:49;;;;;;;3.85;1.50;;;9.10;99.90;;;;;;4994674;28;20053;-77
2022/09/27 20:01:18;;;;;;;4.72;1.73;;;9.10;99.90;;;;;;4986569;28;20185;-79
2022/09/27 20:03:45;;;;;;;4.38;1.95;;;9.10;99.90;;;;;;4989850;28;20044;-77
2022/09/27 20:06:13;;;;;;;6.03;2.53;;;9.10;99.90;;;;;;4992312;28;20057;-77
2022/09/27 20:08:39;;;;;;;6.18;2.38;;;9.00;99.90;;;;;;4989035;28;20043;-78
2022/09/27 20:11:14;;;;;;;6.53;2.08;;;9.00;99.90;;;;;;4990266;28;20040;-78
2022/09/27 20:13:40;;;;;;;2.92;2.10;;;9.00;99.90;;;;;;4985201;28;20061;-79
2022/09/27 20:16:07;;;;;;;2.78;2.00;;;9.00;99.90;;;;;;4992060;28;20038;-78
2022/09/27 20:18:33;;;;;;;3.30;2.10;;;8.90;99.90;;;;;;4987029;28;20052;-78
2022/09/27 20:21:03;;;;;;;3.35;2.20;;;9.00;99.90;;;;;;4995125;28;20050;-77
2022/09/27 20:23:30;;;;;;;2.63;2.20;;;9.00;99.90;;;;;;4993126;28;20050;-78
2022/09/27 20:26:04;;;;;;;6.07;2.20;;;9.00;99.90;;;;;;4989217;28;20049;-79
2022/09/27 20:28:30;;;;;;;5.82;2.45;;;9.00;99.90;;;;;;5000960;28;20042;-77
2022/09/27 20:31:00;;;;;;;5.35;3.33;;;9.00;99.90;;;;;;4992689;28;20096;-77
2022/09/27 20:36:16;;;;;;;3.00;2.20;;;8.90;99.90;;;;;;4994710;28;20049;-78
2022/09/27 20:38:48;;;;;;;3.65;2.30;;;8.90;99.90;;;;;;4977502;28;20060;-77
2022/09/27 20:41:16;;;;;;;7.60;2.40;;;8.90;99.90;;;;;;4989017;28;20097;-78
2022/09/27 20:43:43;;;;;;;4.22;2.30;;;8.90;99.90;;;;;;4976972;28;20043;-79
2022/09/27 20:46:17;;;;;;;4.25;2.67;;;8.90;99.90;;;;;;4999856;28;20180;-78
2022/09/27 20:48:43;;;;;;;4.07;2.35;;;8.90;99.90;;;;;;4987182;28;20179;-77
2022/09/27 20:51:14;;;;;;;3.33;2.60;;;8.80;99.90;;;;;;4993943;28;20038;-77
2022/09/27 20:53:41;;;;;;;5.28;2.78;;;8.80;99.90;;;;;;5002966;28;20056;-78
2022/09/27 20:56:20;;;;;;;4.18;2.70;;;8.80;99.90;;;;;;5006441;28;20045;-79
2022/09/27 20:58:47;;;;;;;4.45;2.60;;;8.80;99.90;;;;;;4990736;28;20049;-79
2022/09/27 21:01:14;;;;;;;4.97;2.85;;;8.80;99.90;;;;;;4992772;28;20179;-78
2022/09/27 21:03:39;;;;;;;4.43;2.58;;;8.80;99.90;;;;;;5006519;28;20056;-79
2022/09/27 21:06:06;;;;;;;4.10;2.72;;;8.80;99.90;;;;;;4995078;28;20069;-78
2022/09/27 21:08:33;;;;;;;4.90;2.92;;;8.80;99.90;;;;;;5009692;28;20539;-80
2022/09/27 21:11:07;;;;;;;4.88;3.00;;;8.80;99.90;;;;;;4995210;28;20045;-81
2022/09/27 21:13:33;;;;;;;4.45;3.15;;;8.90;99.90;;;;;;4983145;28;20120;-80
2022/09/27 21:16:03;;;;;;;5.15;3.10;;;8.90;99.90;;;;;;4979495;28;20125;-78
2022/09/27 21:18:28;;;;;;;4.43;3.17;;;8.90;99.90;;;;;;5004902;28;20049;-78
2022/09/27 21:21:05;;;;;;;3.78;3.00;;;8.90;99.90;;;;;;5005105;28;20046;-78
2022/09/27 21:23:32;;;;;;;4.88;3.47;;;8.90;99.90;;;;;;4991935;28;20129;-78
2022/09/27 21:26:09;;;;;;;5.97;3.63;;;8.90;99.90;;;;;;4990469;28;20048;-78
2022/09/27 21:28:36;;;;;;;5.57;3.30;;;8.90;99.90;;;;;;4992113;28;20049;-78
2022/09/27 21:31:10;;;;;;;6.47;3.30;;;8.90;99.90;;;;;;4998300;28;20049;-78
2022/09/27 21:33:36;;;;;;;6.25;3.90;;;8.90;99.90;;;;;;4999783;28;20046;-78
2022/09/27 21:36:04;;;;;;;7.35;3.65;;;8.90;99.90;;;;;;4998588;28;20480;-78
2022/09/27 21:38:30;;;;;;;5.82;2.83;;;8.90;99.90;;;;;;4997826;28;20416;-78
2022/09/27 21:40:58;;;;;;;4.35;3.10;;;9.00;99.90;;;;;;4995104;28;20725;-78
2022/09/27 21:43:25;;;;;;;5.05;2.75;;;9.00;99.90;;;;;;4996881;28;20179;-78
2022/09/27 21:45:51;;;;;;;4.75;3.05;;;9.00;99.90;;;;;;4987411;28;20046;-78
2022/09/27 21:48:16;;;;;;;4.25;2.92;;;9.10;99.90;;;;;;5007701;28;20069;-79
2022/09/27 21:50:42;;;;;;;7.32;3.50;;;9.00;99.90;;;;;;4987001;28;20133;-78
2022/09/27 21:53:08;;;;;;;8.88;3.65;;;9.00;99.90;;;;;;4991139;28;20136;-78
2022/09/27 21:55:33;;;;;;;5.72;3.90;;;9.00;99.90;;;;;;4985844;28;20548;-78
2022/09/27 21:57:59;;;;;;;7.45;3.75;;;9.10;99.90;;;;;;4982443;28;20042;-78
2022/09/27 22:00:24;;;;;;;6.15;3.92;;;9.00;99.90;;;;;;4990877;28;20053;-79
2022/09/27 22:02:56;;;;;;;5.15;4.07;;;9.00;99.90;;;;;;4975171;28;20121;-82
2022/09/27 22:05:22;;;;;;;7.50;5.00;;;9.00;99.90;;;;;;4987569;28;20043;-83
2022/09/27 22:07:47;;;;;;;4.65;3.78;;;9.00;99.90;;;;;;4992853;28;20534;-83
2022/09/27 22:10:13;;;;;;;6.40;3.83;;;9.00;99.90;;;;;;4981110;28;20041;-83
2022/09/27 22:12:38;;;;;;;6.70;4.10;;;9.00;99.90;;;;;;4974270;28;20502;-83
2022/09/27 22:15:04;;;;;;;8.40;3.92;;;9.00;99.90;;;;;;4990588;28;20049;-83
2022/09/27 22:17:30;;;;;;;6.63;4.18;;;9.00;99.90;;;;;;4968050;28;20046;-83
2022/09/27 22:19:56;;;;;;;7.70;4.63;;;9.00;99.90;;;;;;4979887;28;20049;-83
2022/09/27 22:22:21;;;;;;;6.95;5.20;;;9.10;99.90;;;;;;4986189;28;20084;-80
2022/09/27 22:24:47;;;;;;;7.50;5.32;;;9.10;99.90;;;;;;4997002;28;20132;-80
2022/09/27 22:27:12;;;;;;;7.40;5.10;;;9.20;99.90;;;;;;4976235;28;20037;-81
2022/09/27 22:29:38;;;;;;;6.65;4.82;;;9.20;99.90;;;;;;4971313;28;20046;-83
2022/09/27 22:32:03;;;;;;;6.20;5.03;;;9.20;99.90;;;;;;4966562;28;20041;-84
2022/09/27 22:34:30;;;;;;;7.63;5.28;;;9.20;99.90;;;;;;4989203;28;20085;-84
2022/09/27 22:36:57;;;;;;;8.13;5.05;;;9.20;99.90;;;;;;4992547;28;20041;-83
2022/09/27 22:39:23;;;;;;;7.00;4.90;;;9.20;99.90;;;;;;4984008;28;20045;-80
2022/09/27 22:41:49;;;;;;;7.32;5.75;;;9.30;99.90;;;;;;4987024;28;20511;-80
2022/09/27 22:44:15;;;;;;;6.50;5.80;;;9.30;99.90;;;;;;4995406;28;20104;-80
2022/09/27 22:46:41;;;;;;;9.73;6.25;;;9.30;99.90;;;;;;4999835;28;20038;-81
2022/09/27 22:49:07;;;;;;;11.25;5.60;;;9.30;99.90;;;;;;4999234;28;20077;-80
2022/09/27 22:51:32;;;;;;;8.32;6.28;;;9.30;99.90;;;;;;4987801;28;20044;-81
2022/09/27 22:53:58;;;;;;;9.20;6.07;;;9.20;99.90;;;;;;5000318;28;20046;-81
2022/09/27 22:56:24;;;;;;;10.02;5.93;;;9.20;99.90;;;;;;4997373;28;20110;-81
2022/09/27 22:58:50;;;;;;;8.00;6.38;;;9.20;99.90;;;;;;4992067;28;20049;-81
2022/09/27 23:01:17;;;;;;;8.57;6.18;;;9.10;99.90;;;;;;4999736;28;20037;-81
2022/09/27 23:03:43;;;;;;;7.20;6.30;;;9.10;99.90;;;;;;4990375;28;20096;-81
2022/09/27 23:06:09;;;;;;;6.85;5.28;;;9.10;99.90;;;;;;5011043;28;20492;-81
2022/09/27 23:08:36;;;;;;;5.88;5.28;;;9.10;99.90;;;;;;5002541;28;20053;-81
2022/09/27 23:11:04;;;;;;;6.88;5.47;;;9.20;99.90;;;;;;5005510;28;20062;-81
2022/09/27 23:13:35;;;;;;;6.88;4.90;;;9.20;99.90;;;;;;4992507;28;20053;-81
2022/09/27 23:16:07;;;;;;;7.55;5.78;;;9.20;99.90;;;;;;4979840;28;20043;-80
2022/09/27 23:18:34;;;;;;;13.60;6.45;;;9.20;99.90;;;;;;4989292;28;20049;-80
2022/09/27 23:21:05;;;;;;;7.18;6.10;;;9.20;99.90;;;;;;5002350;28;20038;-80
2022/09/27 23:23:32;;;;;;;11.47;6.77;;;9.20;99.90;;;;;;4995165;28;20137;-80
2022/09/27 23:26:00;;;;;;;8.98;6.93;;;9.20;99.90;;;;;;4998368;28;20462;-80
2022/09/27 23:28:27;;;;;;;8.25;7.00;;;9.20;99.90;;;;;;4996304;28;20038;-80
2022/09/27 23:30:52;;;;;;;7.93;7.13;;;9.20;99.90;;;;;;4989456;28;20038;-80
2022/09/27 23:33:18;;;;;;;8.82;7.20;;;9.20;99.90;;;;;;4990891;28;20050;-80
2022/09/27 23:35:45;;;;;;;8.55;7.65;;;9.20;99.90;;;;;;4987217;28;20091;-80
2022/09/27 23:38:12;;;;;;;11.35;7.88;;;9.20;99.90;;;;;;5001511;28;20045;-80
2022/09/27 23:40:38;;;;;;;12.77;7.53;;;9.20;99.90;;;;;;4982738;28;20496;-81
2022/09/27 23:43:04;;;;;;;10.00;7.25;;;9.20;99.90;;;;;;4998440;28;20057;-82
2022/09/27 23:45:30;;;;;;;8.55;7.22;;;9.20;99.90;;;;;;4976170;28;20447;-81
2022/09/27 23:47:56;;;;;;;10.18;7.38;;;9.20;99.90;;;;;;4988885;28;20490;-82
2022/09/27 23:50:22;;;;;;;12.38;8.27;;;9.20;99.90;;;;;;4993870;28;20040;-81
2022/09/27 23:52:48;;;;;;;10.95;8.25;;;9.20;99.90;;;;;;4992141;28;20519;-82
2022/09/27 23:55:14;;;;;;;10.75;8.57;;;9.20;99.90;;;;;;4977882;28;20037;-80
2022/09/27 23:57:39;;;;;;;13.40;8.95;;;9.10;99.90;;;;;;5008919;28;20092;-80
